KPIT/PIT METAR and TAF weather

Enter ICAO airport designator
Station Type Date Time Source
KPIT METAR 2018/12/15 03:51 UTC NOAA

KPIT 150351Z 06003KT 6SM BR OVC036 08/08 A3013 RMK AO2 SLP215 T00780078


Station Type Date Time Source
KPIT Decoded METAR 2018/12/15 03:51 UTC NOAA

GREATER PITTSBURGH INTERNATIONAL , PA, United States (KPIT) 40-29N 80-14W 357M
Dec 14, 2018 - 10:51 PM EST / 2018.12.15 0351 UTC
Wind: from the ENE (060 degrees) at 3 MPH (3 KT):0
Visibility: 6 mile(s):0
Sky conditions: overcast
Weather: mist
Temperature: 46.0 F (7.8 C)
Dew Point: 46.0 F (7.8 C)
Relative Humidity: 100%
Pressure (altimeter): 30.13 in. Hg (1020 hPa)
ob: KPIT 150351Z 06003KT 6SM BR OVC036 08/08 A3013 RMK AO2 SLP215 T00780078
cycle: 4

Station Type Date Time Source
KPIT TAF 2018/12/15 04:36 UTC NOAA

TAF
AMD KPIT 150334Z 1504/1606 07003KT 6SM BR SCT004 OVC035
TEMPO 1504/1506 5SM -RA BR
FM151000 05006KT 6SM BR VCSH OVC015
FM151800 05008KT 4SM -RA BR OVC020
FM160000 07011KT 4SM -RA BR OVC015


Example: see airport list